Terminal Aerodrome Forecast
Issued by NWS

Home | Current Version | Previous Version | Graphics & Text | Print | Product List | Glossary On
Versions: 1 2 3 4 5 6 7 8 9 10 11 12 13 14 15 16 17
000
FTUS41 KCLE 301136
TAFFDY
TAF
KFDY 301136Z 3012/0112 24005KT 3SM BR OVC035
     FM301300 23006KT P6SM OVC035
     FM301500 23008KT P6SM BKN050
     FM301700 23008KT P6SM -SHRA OVC025
      TEMPO 3017/3021 3SM -TSRA OVC015CB
     FM302300 26008KT P6SM BKN100
     FM010500 26006KT P6SM OVC050
      TEMPO 0108/0112 3SM BR OVC007=

USA.gov is the U.S. government's official web portal to all federal, state and local government web resources and services.